Time,TemperatureF,DewpointF,PressureIn,WindDirection,WindDirectionDegrees,WindSpeedMPH,WindSpeedGustMPH,Humidity,HourlyPrecipIn,Conditions,Clouds,dailyrainin,SoftwareType,DateUTC
2013-05-12 00:01:00,72.5,67.4,30.09,ESE,112,6.8,8.1,84,0.00,CLR,,0.00,WeatherDisplay:10.37,2013-05-12 10:01:00,
2013-05-12 00:06:00,72.5,67.4,30.09,ENE,68,5.3,7.3,84,0.00,CLR,,0.00,WeatherDisplay:10.37,2013-05-12 10:06:00,
2013-05-12 00:11:00,72.5,67.0,30.09,ESE,112,4.3,4.7,83,0.00,CLR,,0.00,WeatherDisplay:10.37,2013-05-12 10:11:00,
2013-05-12 00:16:00,72.5,67.0,30.09,WNW,292,5.1,5.8,83,0.00,CLR,,0.00,WeatherDisplay:10.37,2013-05-12 10:16:00,
2013-05-12 00:21:00,72.5,67.0,30.09,NNW,338,3.7,4.6,83,0.00,CLR,,0.00,WeatherDisplay:10.37,2013-05-12 10:21:00,
2013-05-12 00:26:00,72.5,67.0,30.09,NNW,338,3.3,6.3,83,0.00,CLR,,0.00,WeatherDisplay:10.37,2013-05-12 10:26:00,
2013-05-12 00:31:00,72.3,66.8,30.09,NE,45,4.9,5.3,83,0.00,CLR,,0.00,WeatherDisplay:10.37,2013-05-12 10:31:00,
2013-05-12 00:37:00,72.5,67.0,30.09,NNE,22,4.3,4.3,83,0.00,CLR,,0.00,WeatherDisplay:10.37,2013-05-12 10:37:00,
2013-05-12 00:42:00,72.5,67.0,30.09,NNE,22,4.7,5.8,83,0.00,CLR,,0.00,WeatherDisplay:10.37,2013-05-12 10:42:00,
2013-05-12 00:47:00,72.5,67.0,30.08,NNE,22,2.0,3.7,83,0.00,CLR,,0.00,WeatherDisplay:10.37,2013-05-12 10:47:00,
2013-05-12 00:52:00,72.5,67.0,30.08,ENE,68,2.2,3.2,83,0.00,CLR,,0.00,WeatherDisplay:10.37,2013-05-12 10:52:00,
2013-05-12 00:57:00,72.5,67.0,30.08,NE,45,6.2,8.1,83,0.00,CLR,,0.00,WeatherDisplay:10.37,2013-05-12 10:57:00,
2013-05-12 01:02:00,72.5,67.0,30.08,North,360,3.5,4.2,83,0.00,CLR,,0.00,WeatherDisplay:10.37,2013-05-12 11:02:00,
2013-05-12 01:07:00,72.5,67.0,30.08,ENE,68,5.5,9.2,83,0.00,CLR,,0.00,WeatherDisplay:10.37,2013-05-12 11:07:00,
2013-05-12 01:12:00,72.5,67.0,30.08,ESE,112,3.8,7.3,83,0.00,CLR,,0.00,WeatherDisplay:10.37,2013-05-12 11:12:00,
2013-05-12 01:17:00,72.5,67.0,30.08,NW,315,2.5,4.6,83,0.00,CLR,,0.00,WeatherDisplay:10.37,2013-05-12 11:17:00,
2013-05-12 01:22:00,72.5,67.0,30.08,NE,45,5.2,5.8,83,0.00,CLR,,0.00,WeatherDisplay:10.37,2013-05-12 11:22:00,
2013-05-12 01:27:00,72.7,66.9,30.08,NNW,338,5.3,5.8,82,0.00,CLR,,0.00,WeatherDisplay:10.37,2013-05-12 11:27:00,
2013-05-12 01:32:00,72.7,66.9,30.08,NNW,338,4.2,5.3,82,0.00,CLR,,0.00,WeatherDisplay:10.37,2013-05-12 11:32:00,
2013-05-12 01:37:00,72.7,66.9,30.07,NW,315,3.7,4.6,82,0.00,CLR,,0.00,WeatherDisplay:10.37,2013-05-12 11:37:00,
2013-05-12 01:42:00,72.7,66.9,30.07,ENE,68,5.6,7.3,82,0.00,CLR,,0.00,WeatherDisplay:10.37,2013-05-12 11:42:00,
2013-05-12 01:48:00,73.0,66.8,30.07,NNE,22,4.2,5.8,81,0.00,CLR,,0.00,WeatherDisplay:10.37,2013-05-12 11:48:00,
2013-05-12 01:53:00,73.0,66.8,30.07,East,90,2.4,3.5,81,0.00,CLR,,0.00,WeatherDisplay:10.37,2013-05-12 11:53:00,
2013-05-12 01:58:00,72.9,66.7,30.07,NE,45,2.8,3.5,81,0.00,CLR,,0.00,WeatherDisplay:10.37,2013-05-12 11:58:00,
2013-05-12 02:03:00,72.9,66.7,30.06,NE,45,4.2,5.8,81,0.00,CLR,,0.00,WeatherDisplay:10.37,2013-05-12 12:03:00,
2013-05-12 02:08:00,73.0,66.8,30.06,NNE,22,1.9,2.3,81,0.00,CLR,,0.00,WeatherDisplay:10.37,2013-05-12 12:08:00,
2013-05-12 02:13:00,73.0,66.5,30.06,NNE,22,3.3,5.8,80,0.00,CLR,,0.00,WeatherDisplay:10.37,2013-05-12 12:13:00,
2013-05-12 02:18:00,73.0,66.5,30.06,NNE,22,4.4,5.8,80,0.00,CLR,,0.00,WeatherDisplay:10.37,2013-05-12 12:18:00,
2013-05-12 02:23:00,72.9,66.4,30.06,North,360,3.6,5.8,80,0.00,CLR,,0.00,WeatherDisplay:10.37,2013-05-12 12:23:00,
2013-05-12 02:28:00,72.7,66.5,30.06,WSW,248,3.3,3.5,81,0.00,CLR,,0.00,WeatherDisplay:10.37,2013-05-12 12:28:00,
2013-05-12 02:33:00,72.5,66.3,30.06,ENE,68,2.1,3.5,81,0.00,CLR,,0.00,WeatherDisplay:10.37,2013-05-12 12:33:00,
2013-05-12 02:38:00,72.5,66.7,30.05,WNW,292,6.4,6.9,82,0.00,CLR,,0.00,WeatherDisplay:10.37,2013-05-12 12:38:00,
2013-05-12 02:43:00,72.1,66.6,30.05,ENE,68,6.2,6.9,83,0.00,CLR,,0.00,WeatherDisplay:10.37,2013-05-12 12:43:00,
2013-05-12 02:48:00,72.1,66.6,30.05,ENE,68,6.3,6.3,83,0.00,CLR,,0.00,WeatherDisplay:10.37,2013-05-12 12:48:00,
2013-05-12 02:53:00,72.1,66.6,30.05,ENE,68,6.3,6.3,83,0.00,CLR,,0.00,WeatherDisplay:10.37,2013-05-12 12:53:00,
2013-05-12 02:59:00,72.1,66.6,30.05,ENE,68,6.3,6.3,83,0.00,CLR,,0.00,WeatherDisplay:10.37,2013-05-12 12:59:00,
2013-05-12 03:04:00,72.1,66.6,30.05,ENE,68,6.3,6.3,83,0.00,CLR,,0.00,WeatherDisplay:10.37,2013-05-12 13:04:00,
2013-05-12 03:09:00,72.1,66.6,30.05,ENE,68,6.3,6.3,83,0.00,CLR,,0.00,WeatherDisplay:10.37,2013-05-12 13:09:00,
2013-05-12 03:14:00,72.1,66.6,30.05,ENE,68,6.3,6.3,83,0.00,CLR,,0.00,WeatherDisplay:10.37,2013-05-12 13:14:00,
2013-05-12 03:19:00,72.1,66.6,30.05,ENE,68,6.3,6.3,83,0.00,CLR,,0.00,WeatherDisplay:10.37,2013-05-12 13:19:00,
2013-05-12 03:24:00,72.1,66.6,30.05,ENE,68,6.3,6.3,83,0.00,CLR,,0.00,WeatherDisplay:10.37,2013-05-12 13:24:00,
2013-05-12 03:29:00,71.8,68.7,30.05,NNE,22,3.4,5.8,90,0.00,CLR,,0.00,WeatherDisplay:10.37,2013-05-12 13:29:00,
2013-05-12 03:34:00,71.8,68.7,30.05,NE,45,2.4,4.2,90,0.00,CLR,,0.00,WeatherDisplay:10.37,2013-05-12 13:34:00,
2013-05-12 03:39:00,71.8,68.7,30.05,ESE,112,0.6,2.3,90,0.00,CLR,,0.00,WeatherDisplay:10.37,2013-05-12 13:39:00,
2013-05-12 03:44:00,71.8,68.7,30.05,NW,315,2.2,2.3,90,0.00,CLR,,0.01,WeatherDisplay:10.37,2013-05-12 13:44:00,
2013-05-12 03:49:00,71.8,68.7,30.05,NNW,338,4.3,4.6,90,0.01,RA,,0.01,WeatherDisplay:10.37,2013-05-12 13:49:00,
2013-05-12 03:54:00,71.6,68.8,30.05,WSW,248,2.5,2.7,91,0.01,RA,,0.01,WeatherDisplay:10.37,2013-05-12 13:54:00,
2013-05-12 03:59:00,71.6,68.8,30.05,SW,225,2.1,3.5,91,0.01,CLR,,0.01,WeatherDisplay:10.37,2013-05-12 13:59:00,
2013-05-12 04:05:00,71.6,68.8,30.05,NW,315,4.4,4.4,91,0.01,CLR,,0.01,WeatherDisplay:10.37,2013-05-12 14:05:00,
2013-05-12 04:10:00,71.8,69.3,30.05,NE,47,2.0,3.0,92,0.00,RA,,0.02,WeatherDisplay:10.37,2013-05-12 14:10:00,
2013-05-12 04:15:00,72.0,69.5,30.05,East,90,0.0,3.0,92,0.00,RA,,0.03,WeatherDisplay:10.37,2013-05-12 14:15:00,
2013-05-12 04:20:00,72.0,69.5,30.05,SSE,161,1.0,3.0,92,0.00,RA,,0.04,WeatherDisplay:10.37,2013-05-12 14:20:00,
2013-05-12 04:25:00,71.8,69.3,30.05,South,181,1.0,2.0,92,0.00,RA,,0.04,WeatherDisplay:10.37,2013-05-12 14:25:00,
2013-05-12 04:30:00,71.8,69.3,30.05,SSW,192,0.0,1.0,92,0.00,RA,,0.05,WeatherDisplay:10.37,2013-05-12 14:30:00,
2013-05-12 04:35:00,72.0,69.9,30.05,West,270,2.2,2.3,93,0.05,RA,,0.05,WeatherDisplay:10.37,2013-05-12 14:35:00,
2013-05-12 04:40:00,72.0,69.9,30.05,West,272,2.0,3.0,93,0.00,CLR,,0.05,WeatherDisplay:10.37,2013-05-12 14:40:00,
2013-05-12 04:45:00,72.1,70.0,30.05,West,272,0.0,2.0,93,0.00,CLR,,0.05,WeatherDisplay:10.37,2013-05-12 14:45:00,
2013-05-12 04:50:00,72.1,70.0,30.05,NW,306,2.0,3.0,93,0.00,CLR,,0.05,WeatherDisplay:10.37,2013-05-12 14:50:00,
2013-05-12 04:55:00,71.9,69.8,30.05,WNW,297,2.0,5.0,93,0.00,CLR,,0.05,WeatherDisplay:10.37,2013-05-12 14:55:00,
2013-05-12 05:00:00,71.8,69.7,30.05,NW,311,0.0,3.0,93,0.00,RA,,0.06,WeatherDisplay:10.37,2013-05-12 15:00:00,
2013-05-12 05:05:00,71.8,69.7,30.05,NW,322,0.0,2.0,93,0.00,RA,,0.06,WeatherDisplay:10.37,2013-05-12 15:05:00,
2013-05-12 05:10:00,71.8,69.7,30.05,West,270,0.6,2.3,93,0.05,RA,,0.07,WeatherDisplay:10.37,2013-05-12 15:10:00,
2013-05-12 05:15:00,72.0,69.9,30.05,NNW,342,2.0,3.0,93,0.00,RA,,0.07,WeatherDisplay:10.37,2013-05-12 15:15:00,
2013-05-12 05:20:00,72.0,69.9,30.05,WNW,296,2.0,3.0,93,0.00,CLR,,0.07,WeatherDisplay:10.37,2013-05-12 15:20:00,
2013-05-12 05:25:00,72.0,69.9,30.05,WNW,284,1.0,2.0,93,0.00,RA,,0.08,WeatherDisplay:10.37,2013-05-12 15:25:00,
2013-05-12 05:30:00,72.3,70.5,30.05,WNW,292,2.9,3.7,94,0.03,RA,,0.08,WeatherDisplay:10.37,2013-05-12 15:30:00,
2013-05-12 05:35:00,72.5,70.7,30.06,NW,308,2.0,4.0,94,0.00,RA,,0.09,WeatherDisplay:10.37,2013-05-12 15:35:00,
2013-05-12 05:40:00,72.5,70.7,30.06,WNW,300,2.0,4.0,94,0.00,RA,,0.09,WeatherDisplay:10.37,2013-05-12 15:40:00,
2013-05-12 05:45:00,72.5,70.7,30.06,WNW,297,3.0,3.0,94,0.00,RA,,0.10,WeatherDisplay:10.37,2013-05-12 15:45:00,
2013-05-12 05:50:00,72.5,70.7,30.06,WNW,299,2.0,3.0,94,0.00,RA,,0.11,WeatherDisplay:10.37,2013-05-12 15:50:00,
2013-05-12 05:55:00,72.5,70.7,30.06,WNW,284,2.0,3.0,94,0.00,RA,,0.11,WeatherDisplay:10.37,2013-05-12 15:55:00,
2013-05-12 06:00:00,72.3,70.5,30.06,West,264,2.0,4.0,94,0.00,CLR,,0.11,WeatherDisplay:10.37,2013-05-12 16:00:00,
2013-05-12 06:05:00,72.3,70.5,30.06,WSW,248,4.0,4.2,94,0.06,RA,,0.12,WeatherDisplay:10.37,2013-05-12 16:05:00,
2013-05-12 06:10:00,72.3,70.5,30.06,NW,315,3.2,5.8,94,0.05,RA,,0.12,WeatherDisplay:10.37,2013-05-12 16:10:00,
2013-05-12 06:15:00,72.3,70.5,30.07,NNE,22,0.1,1.1,94,0.06,RA,,0.13,WeatherDisplay:10.37,2013-05-12 16:15:00,
2013-05-12 06:20:00,72.5,70.7,30.07,NNE,22,2.7,3.5,94,0.08,RA,,0.15,WeatherDisplay:10.37,2013-05-12 16:20:00,
2013-05-12 06:25:00,72.5,70.7,30.07,West,270,5.8,8.1,94,0.08,RA,,0.16,WeatherDisplay:10.37,2013-05-12 16:25:00,
2013-05-12 06:30:00,72.5,70.7,30.07,North,360,4.3,4.7,94,0.09,RA,,0.17,WeatherDisplay:10.37,2013-05-12 16:30:00,
2013-05-12 06:35:00,72.5,70.7,30.08,NNE,22,2.8,3.2,94,0.08,RA,,0.17,WeatherDisplay:10.37,2013-05-12 16:35:00,
2013-05-12 06:40:00,72.5,70.7,30.08,NE,45,1.2,2.3,94,0.09,RA,,0.19,WeatherDisplay:10.37,2013-05-12 16:40:00,
2013-05-12 06:45:00,72.7,70.9,30.08,ENE,68,3.3,3.7,94,0.09,RA,,0.20,WeatherDisplay:10.37,2013-05-12 16:45:00,
2013-05-12 06:50:00,72.7,70.9,30.09,ENE,68,2.3,2.3,94,0.09,RA,,0.20,WeatherDisplay:10.37,2013-05-12 16:50:00,
2013-05-12 06:55:00,72.9,71.4,30.09,NNW,338,3.1,3.7,95,0.10,RA,,0.21,WeatherDisplay:10.37,2013-05-12 16:55:00,
2013-05-12 07:00:00,72.9,71.4,30.09,West,270,2.6,4.6,95,0.10,RA,,0.21,WeatherDisplay:10.37,2013-05-12 17:00:00,
2013-05-12 07:05:00,72.9,71.4,30.09,NNE,22,2.1,4.6,95,0.09,CLR,,0.21,WeatherDisplay:10.37,2013-05-12 17:05:00,
2013-05-12 07:10:00,73.0,71.5,30.09,WNW,292,4.0,4.6,95,0.10,RA,,0.22,WeatherDisplay:10.37,2013-05-12 17:10:00,
2013-05-12 07:16:00,73.0,71.5,30.09,NNW,338,6.5,6.9,95,0.09,RA,,0.22,WeatherDisplay:10.37,2013-05-12 17:16:00,
2013-05-12 07:21:00,73.2,71.7,30.09,NE,45,4.4,5.8,95,0.08,RA,,0.23,WeatherDisplay:10.37,2013-05-12 17:21:00,
2013-05-12 07:26:00,73.2,71.7,30.09,WNW,292,2.9,3.5,95,0.08,RA,,0.24,WeatherDisplay:10.37,2013-05-12 17:26:00,
2013-05-12 07:31:00,73.4,71.9,30.09,NNW,338,3.9,4.6,95,0.08,RA,,0.25,WeatherDisplay:10.37,2013-05-12 17:31:00,
2013-05-12 07:36:00,73.4,71.9,30.10,West,270,3.0,4.6,95,0.10,RA,,0.27,WeatherDisplay:10.37,2013-05-12 17:36:00,
2013-05-12 07:41:00,73.2,71.7,30.10,WNW,292,3.9,4.6,95,0.11,RA,,0.31,WeatherDisplay:10.37,2013-05-12 17:41:00,
2013-05-12 07:46:00,73.2,71.7,30.10,NW,315,3.6,4.2,95,0.11,RA,,0.31,WeatherDisplay:10.37,2013-05-12 17:46:00,
2013-05-12 07:51:00,73.4,71.9,30.10,WNW,292,3.7,4.6,95,0.13,RA,,0.33,WeatherDisplay:10.37,2013-05-12 17:51:00,
2013-05-12 07:56:00,73.2,71.7,30.10,West,270,3.3,4.6,95,0.13,RA,,0.34,WeatherDisplay:10.37,2013-05-12 17:56:00,
2013-05-12 08:01:00,73.2,71.7,30.10,WNW,292,2.0,3.5,95,0.14,RA,,0.35,WeatherDisplay:10.37,2013-05-12 18:01:00,
2013-05-12 08:06:00,73.4,71.9,30.10,NW,315,3.2,3.5,95,0.16,RA,,0.37,WeatherDisplay:10.37,2013-05-12 18:06:00,
2013-05-12 08:11:00,73.4,71.9,30.11,NW,315,3.2,3.5,95,0.15,RA,,0.37,WeatherDisplay:10.37,2013-05-12 18:11:00,
2013-05-12 08:16:00,73.6,72.1,30.11,ENE,68,4.4,4.6,95,0.17,RA,,0.39,WeatherDisplay:10.37,2013-05-12 18:16:00,
2013-05-12 08:21:00,73.6,72.1,30.11,WNW,292,4.4,5.8,95,0.17,RA,,0.40,WeatherDisplay:10.37,2013-05-12 18:21:00,
2013-05-12 08:27:00,73.6,72.1,30.11,NNE,22,3.5,5.8,95,0.16,RA,,0.40,WeatherDisplay:10.37,2013-05-12 18:27:00,
2013-05-12 08:32:00,73.8,72.3,30.11,West,270,3.9,4.6,95,0.16,RA,,0.41,WeatherDisplay:10.37,2013-05-12 18:32:00,
2013-05-12 08:37:00,73.9,72.4,30.11,NNW,338,3.5,4.6,95,0.14,RA,,0.41,WeatherDisplay:10.37,2013-05-12 18:37:00,
2013-05-12 08:42:00,73.9,72.4,30.11,NNW,338,5.0,5.8,95,0.11,RA,,0.43,WeatherDisplay:10.37,2013-05-12 18:42:00,
2013-05-12 08:47:00,73.9,72.4,30.11,North,360,3.5,4.6,95,0.13,RA,,0.44,WeatherDisplay:10.37,2013-05-12 18:47:00,
2013-05-12 08:52:00,73.9,72.4,30.11,NNW,338,5.0,5.8,95,0.13,RA,,0.46,WeatherDisplay:10.37,2013-05-12 18:52:00,
2013-05-12 08:57:00,73.8,72.3,30.11,NE,45,3.8,5.8,95,0.15,RA,,0.49,WeatherDisplay:10.37,2013-05-12 18:57:00,
2013-05-12 09:02:00,73.8,72.3,30.11,NNW,338,3.1,3.7,95,0.16,RA,,0.51,WeatherDisplay:10.37,2013-05-12 19:02:00,
2013-05-12 09:07:00,73.9,72.4,30.11,WNW,292,2.7,3.5,95,0.16,RA,,0.53,WeatherDisplay:10.37,2013-05-12 19:07:00,
2013-05-12 09:12:00,74.1,72.6,30.11,North,360,4.8,5.8,95,0.16,RA,,0.53,WeatherDisplay:10.37,2013-05-12 19:12:00,
2013-05-12 09:17:00,74.3,72.8,30.11,NW,315,2.7,3.2,95,0.15,RA,,0.55,WeatherDisplay:10.37,2013-05-12 19:17:00,
2013-05-12 09:22:00,74.1,72.6,30.11,NNE,22,3.5,4.6,95,0.19,RA,,0.60,WeatherDisplay:10.37,2013-05-12 19:22:00,
2013-05-12 09:27:00,74.3,73.1,30.11,East,90,3.9,5.8,96,0.25,RA,,0.65,WeatherDisplay:10.37,2013-05-12 19:27:00,
2013-05-12 09:32:00,74.5,73.3,30.11,NW,315,3.7,3.7,96,0.25,RA,,0.67,WeatherDisplay:10.37,2013-05-12 19:32:00,
2013-05-12 09:38:00,74.3,73.1,30.11,NE,45,4.7,5.8,96,0.30,RA,,0.71,WeatherDisplay:10.37,2013-05-12 19:38:00,
2013-05-12 09:43:00,74.1,72.9,30.11,ENE,68,2.7,4.7,96,0.31,RA,,0.74,WeatherDisplay:10.37,2013-05-12 19:43:00,
2013-05-12 09:48:00,74.1,72.9,30.11,WNW,292,6.6,8.1,96,0.34,RA,,0.79,WeatherDisplay:10.37,2013-05-12 19:48:00,
2013-05-12 09:53:00,74.1,72.9,30.11,NNW,338,4.8,5.8,96,0.36,RA,,0.83,WeatherDisplay:10.37,2013-05-12 19:53:00,
2013-05-12 09:58:00,74.1,72.9,30.11,East,90,4.7,5.8,96,0.38,RA,,0.87,WeatherDisplay:10.37,2013-05-12 19:58:00,
2013-05-12 10:03:00,74.7,73.5,30.11,NNW,338,6.3,8.1,96,0.42,RA,,0.93,WeatherDisplay:10.37,2013-05-12 20:03:00,
2013-05-12 10:08:00,74.8,73.6,30.11,NE,45,6.7,8.1,96,0.46,RA,,1.00,WeatherDisplay:10.37,2013-05-12 20:08:00,
2013-05-12 10:13:00,74.7,73.5,30.10,NE,45,8.8,9.2,96,0.47,RA,,1.00,WeatherDisplay:10.37,2013-05-12 20:13:00,
2013-05-12 10:18:00,74.8,73.6,30.10,NE,45,4.4,6.9,96,0.50,RA,,1.05,WeatherDisplay:10.37,2013-05-12 20:18:00,
2013-05-12 10:23:00,74.8,73.6,30.11,ENE,68,5.7,6.9,96,0.53,RA,,1.14,WeatherDisplay:10.37,2013-05-12 20:23:00,
2013-05-12 10:28:00,74.8,73.6,30.11,NE,45,3.7,3.7,96,0.57,RA,,1.24,WeatherDisplay:10.37,2013-05-12 20:28:00,
2013-05-12 10:33:00,74.8,73.6,30.11,NNW,338,6.7,6.7,96,0.72,RA,,1.40,WeatherDisplay:10.37,2013-05-12 20:33:00,
2013-05-12 10:38:00,74.7,73.5,30.11,East,90,4.2,5.8,96,0.81,RA,,1.53,WeatherDisplay:10.37,2013-05-12 20:38:00,
2013-05-12 10:43:00,74.7,73.5,30.11,West,270,5.8,6.9,96,0.95,RA,,1.71,WeatherDisplay:10.37,2013-05-12 20:43:00,
2013-05-12 10:49:00,74.7,73.5,30.10,NW,315,5.4,6.9,96,1.04,RA,,1.88,WeatherDisplay:10.37,2013-05-12 20:49:00,
2013-05-12 10:54:00,74.7,73.5,30.10,NNW,338,4.3,5.8,96,1.15,RA,,1.98,WeatherDisplay:10.37,2013-05-12 20:54:00,
2013-05-12 10:59:00,74.7,73.5,30.11,WNW,292,6.1,9.2,96,1.15,RA,,2.03,WeatherDisplay:10.37,2013-05-12 20:59:00,
2013-05-12 11:04:00,74.7,73.5,30.11,East,90,5.7,8.1,96,1.16,RA,,2.11,WeatherDisplay:10.37,2013-05-12 21:04:00,
2013-05-12 11:09:00,74.7,73.5,30.11,SSW,202,2.0,2.3,96,1.19,RA,,2.19,WeatherDisplay:10.37,2013-05-12 21:09:00,
2013-05-12 11:14:00,74.8,73.6,30.10,SW,225,5.4,6.9,96,1.24,RA,,2.24,WeatherDisplay:10.37,2013-05-12 21:14:00,
2013-05-12 11:19:00,74.7,73.5,30.10,NNE,22,6.1,6.9,96,1.22,RA,,2.27,WeatherDisplay:10.37,2013-05-12 21:19:00,
2013-05-12 11:24:00,74.7,73.5,30.10,ESE,112,4.0,5.8,96,1.13,RA,,2.29,WeatherDisplay:10.37,2013-05-12 21:24:00,
2013-05-12 11:29:00,75.0,73.8,30.10,WSW,248,1.8,2.7,96,1.09,RA,,2.33,WeatherDisplay:10.37,2013-05-12 21:29:00,
2013-05-12 11:34:00,75.0,73.8,30.10,South,180,3.0,3.5,96,1.02,RA,,2.43,WeatherDisplay:10.37,2013-05-12 21:34:00,
2013-05-12 11:39:00,74.8,73.6,30.10,WNW,292,5.9,8.8,96,0.93,RA,,2.51,WeatherDisplay:10.37,2013-05-12 21:39:00,
2013-05-12 11:44:00,75.0,73.8,30.10,West,270,1.2,2.2,96,0.84,RA,,2.56,WeatherDisplay:10.37,2013-05-12 21:44:00,
2013-05-12 11:49:00,75.2,74.0,30.10,NE,45,4.3,5.3,96,0.75,RA,,2.66,WeatherDisplay:10.37,2013-05-12 21:49:00,
2013-05-12 11:54:00,75.2,74.0,30.10,ESE,112,1.9,3.5,96,0.75,RA,,2.75,WeatherDisplay:10.37,2013-05-12 21:54:00,
2013-05-12 12:00:00,75.0,73.5,30.10,ESE,113,3.0,6.0,95,0.02,RA,,2.87,WeatherDisplay:10.37,2013-05-12 22:00:00,
2013-05-12 12:05:00,74.9,73.4,30.10,West,262,2.0,4.0,95,0.03,RA,,2.96,WeatherDisplay:10.37,2013-05-12 22:05:00,
2013-05-12 12:10:00,74.7,73.2,30.10,ENE,68,3.1,3.5,95,0.81,RA,,3.02,WeatherDisplay:10.37,2013-05-12 22:10:00,
2013-05-12 12:15:00,74.8,73.0,30.09,WSW,248,2.7,2.7,94,0.86,RA,,3.10,WeatherDisplay:10.37,2013-05-12 22:15:00,
2013-05-12 12:20:00,74.8,73.0,30.09,WSW,248,2.7,2.7,94,0.83,RA,,3.10,WeatherDisplay:10.37,2013-05-12 22:20:00,
2013-05-12 12:25:00,75.0,73.2,30.09,WNW,292,2.0,2.3,94,0.88,RA,,3.17,WeatherDisplay:10.37,2013-05-12 22:25:00,
2013-05-12 12:30:00,75.2,73.4,30.09,WSW,248,3.2,3.5,94,0.83,RA,,3.17,WeatherDisplay:10.37,2013-05-12 22:30:00,
2013-05-12 12:35:00,75.2,73.4,30.09,WSW,248,3.2,3.5,94,0.74,,,3.17,WeatherDisplay:10.37,2013-05-12 22:35:00,
2013-05-12 12:40:00,75.2,73.4,30.09,WSW,248,3.2,3.5,94,0.65,CLR,,3.17,WeatherDisplay:10.37,2013-05-12 22:40:00,
2013-05-12 12:45:00,75.2,73.4,30.09,WSW,248,3.2,3.5,94,0.60,CLR,,3.17,WeatherDisplay:10.37,2013-05-12 22:45:00,
2013-05-12 12:50:00,75.2,73.4,30.09,WSW,248,3.2,3.5,94,0.51,CLR,,3.17,WeatherDisplay:10.37,2013-05-12 22:50:00,
2013-05-12 12:55:00,75.2,73.4,30.09,WSW,248,3.2,3.5,94,0.42,CLR,,3.17,WeatherDisplay:10.37,2013-05-12 22:55:00,
2013-05-12 13:00:00,75.2,73.4,30.09,WSW,248,3.2,3.5,94,0.30,CLR,,3.17,WeatherDisplay:10.37,2013-05-12 23:00:00,
2013-05-12 13:05:00,75.2,73.4,30.09,WSW,248,3.2,3.5,94,0.21,CLR,,3.17,WeatherDisplay:10.37,2013-05-12 23:05:00,
2013-05-12 13:10:00,75.2,73.4,30.09,WSW,248,3.2,3.5,94,0.15,CLR,,3.17,WeatherDisplay:10.37,2013-05-12 23:10:00,
2013-05-12 13:16:00,75.2,73.4,30.09,WSW,248,3.2,3.5,94,0.07,CLR,,3.17,WeatherDisplay:10.37,2013-05-12 23:16:00,
2013-05-12 13:21:00,75.2,73.4,30.09,WSW,248,3.2,3.5,94,0.02,CLR,,3.17,WeatherDisplay:10.37,2013-05-12 23:21:00,
2013-05-12 13:26:00,75.2,73.4,30.09,WSW,248,3.2,3.5,94,0.00,CLR,,3.17,WeatherDisplay:10.37,2013-05-12 23:26:00,
2013-05-12 13:31:00,75.2,73.4,30.09,WSW,248,3.2,3.5,94,0.00,CLR,,3.17,WeatherDisplay:10.37,2013-05-12 23:31:00,
2013-05-12 13:36:00,75.2,73.4,30.09,WSW,248,3.2,3.5,94,0.00,CLR,,3.17,WeatherDisplay:10.37,2013-05-12 23:36:00,
2013-05-12 13:41:00,75.2,73.4,30.09,WSW,248,3.2,3.5,94,0.00,CLR,,3.17,WeatherDisplay:10.37,2013-05-12 23:41:00,
2013-05-12 13:46:00,75.2,73.4,30.09,WSW,248,3.2,3.5,94,0.00,CLR,,3.17,WeatherDisplay:10.37,2013-05-12 23:46:00,
2013-05-12 13:51:00,75.2,73.4,30.09,WSW,248,3.2,3.5,94,0.00,CLR,,3.17,WeatherDisplay:10.37,2013-05-12 23:51:00,
2013-05-12 13:56:00,75.2,73.4,30.09,WSW,248,3.2,3.5,94,0.00,CLR,,3.17,WeatherDisplay:10.37,2013-05-12 23:56:00,
2013-05-12 14:01:00,75.2,73.4,30.09,WSW,248,3.2,3.5,94,0.00,CLR,,3.17,WeatherDisplay:10.37,2013-05-13 00:01:00,
2013-05-12 14:06:00,75.2,73.4,30.09,WSW,248,3.2,3.5,94,0.00,CLR,,3.17,WeatherDisplay:10.37,2013-05-13 00:06:00,
2013-05-12 14:11:00,75.2,73.4,30.09,WSW,248,3.2,3.5,94,0.00,CLR,,3.17,WeatherDisplay:10.37,2013-05-13 00:11:00,
2013-05-12 14:16:00,75.2,73.4,30.09,WSW,248,3.2,3.5,94,0.00,CLR,,3.17,WeatherDisplay:10.37,2013-05-13 00:16:00,
2013-05-12 14:21:00,75.2,73.4,30.09,WSW,248,3.2,3.5,94,0.00,CLR,,3.17,WeatherDisplay:10.37,2013-05-13 00:21:00,
2013-05-12 14:27:00,75.2,73.4,30.09,WSW,248,3.2,3.5,94,0.00,CLR,,3.17,WeatherDisplay:10.37,2013-05-13 00:27:00,
2013-05-12 14:32:00,75.2,73.4,30.09,WSW,248,3.2,3.5,94,0.00,CLR,,3.17,WeatherDisplay:10.37,2013-05-13 00:32:00,
2013-05-12 14:37:00,75.2,73.4,30.09,WSW,248,3.2,3.5,94,0.00,CLR,,3.17,WeatherDisplay:10.37,2013-05-13 00:37:00,
2013-05-12 14:42:00,75.2,73.4,30.09,WSW,248,3.2,3.5,94,0.00,CLR,,3.17,WeatherDisplay:10.37,2013-05-13 00:42:00,
2013-05-12 14:47:00,75.2,73.4,30.09,WSW,248,3.2,3.5,94,0.00,CLR,,3.17,WeatherDisplay:10.37,2013-05-13 00:47:00,
2013-05-12 14:52:00,75.2,73.4,30.09,WSW,248,3.2,3.5,94,0.00,CLR,,3.17,WeatherDisplay:10.37,2013-05-13 00:52:00,
2013-05-12 14:57:00,75.2,73.4,30.09,WSW,248,3.2,3.5,94,0.00,CLR,,3.17,WeatherDisplay:10.37,2013-05-13 00:57:00,
2013-05-12 15:02:00,75.2,73.4,30.09,WSW,248,3.2,3.5,94,0.00,CLR,,3.17,WeatherDisplay:10.37,2013-05-13 01:02:00,
2013-05-12 15:07:00,75.2,73.4,30.09,WSW,248,3.2,3.5,94,0.00,CLR,,3.17,WeatherDisplay:10.37,2013-05-13 01:07:00,
2013-05-12 15:12:00,75.2,73.4,30.09,WSW,248,3.2,3.5,94,0.00,CLR,,3.17,WeatherDisplay:10.37,2013-05-13 01:12:00,
2013-05-12 15:17:00,75.2,73.4,30.09,WSW,248,3.2,3.5,94,0.00,CLR,,3.17,WeatherDisplay:10.37,2013-05-13 01:17:00,
2013-05-12 15:22:00,75.2,73.4,30.09,WSW,248,3.2,3.5,94,0.00,CLR,,3.17,WeatherDisplay:10.37,2013-05-13 01:22:00,
2013-05-12 15:27:00,75.2,73.4,30.09,WSW,248,3.2,3.5,94,0.00,CLR,,3.17,WeatherDisplay:10.37,2013-05-13 01:27:00,
2013-05-12 15:32:00,75.2,73.4,30.09,WSW,248,3.2,3.5,94,0.00,CLR,,3.17,WeatherDisplay:10.37,2013-05-13 01:32:00,
2013-05-12 15:38:00,75.2,73.4,30.09,WSW,248,3.2,3.5,94,0.00,CLR,,3.17,WeatherDisplay:10.37,2013-05-13 01:38:00,
2013-05-12 15:42:00,75.2,73.4,30.09,WSW,248,3.2,3.5,94,0.00,CLR,,3.17,WeatherDisplay:10.37,2013-05-13 01:42:00,
2013-05-12 15:48:00,75.2,73.4,30.09,WSW,248,3.2,3.5,94,0.00,CLR,,3.17,WeatherDisplay:10.37,2013-05-13 01:48:00,
2013-05-12 15:53:00,75.2,73.4,30.09,WSW,248,3.2,3.5,94,0.00,CLR,,3.17,WeatherDisplay:10.37,2013-05-13 01:53:00,
2013-05-12 15:58:00,75.2,73.4,30.09,WSW,248,3.2,3.5,94,0.00,CLR,,3.17,WeatherDisplay:10.37,2013-05-13 01:58:00,
2013-05-12 16:03:00,75.2,73.4,30.09,WSW,248,3.2,3.5,94,0.00,CLR,,3.17,WeatherDisplay:10.37,2013-05-13 02:03:00,
2013-05-12 16:08:00,75.2,73.4,30.09,WSW,248,3.2,3.5,94,0.00,CLR,,3.17,WeatherDisplay:10.37,2013-05-13 02:08:00,
2013-05-12 16:13:00,75.2,73.4,30.09,WSW,248,3.2,3.5,94,0.00,CLR,,3.17,WeatherDisplay:10.37,2013-05-13 02:13:00,
2013-05-12 16:18:00,75.2,73.4,30.09,WSW,248,3.2,3.5,94,0.00,CLR,,3.17,WeatherDisplay:10.37,2013-05-13 02:18:00,
2013-05-12 16:23:00,75.2,73.4,30.09,WSW,248,3.2,3.5,94,0.00,CLR,,3.17,WeatherDisplay:10.37,2013-05-13 02:23:00,
2013-05-12 16:28:00,75.2,73.4,30.09,WSW,248,3.2,3.5,94,0.00,CLR,,3.17,WeatherDisplay:10.37,2013-05-13 02:28:00,
2013-05-12 16:33:00,75.2,73.4,30.09,WSW,248,3.2,3.5,94,0.00,CLR,,3.17,WeatherDisplay:10.37,2013-05-13 02:33:00,
2013-05-12 16:38:00,75.2,73.4,30.09,WSW,248,3.2,3.5,94,0.00,CLR,,3.17,WeatherDisplay:10.37,2013-05-13 02:38:00,
2013-05-12 16:43:00,75.2,73.4,30.09,WSW,248,3.2,3.5,94,0.00,CLR,,3.17,WeatherDisplay:10.37,2013-05-13 02:43:00,
2013-05-12 16:48:00,75.2,73.4,30.09,WSW,248,3.2,3.5,94,0.00,CLR,,3.17,WeatherDisplay:10.37,2013-05-13 02:48:00,
2013-05-12 16:53:00,75.2,73.4,30.09,WSW,248,3.2,3.5,94,0.00,CLR,,3.17,WeatherDisplay:10.37,2013-05-13 02:53:00,
2013-05-12 16:59:00,75.2,73.4,30.09,WSW,248,3.2,3.5,94,0.00,CLR,,3.17,WeatherDisplay:10.37,2013-05-13 02:59:00,
2013-05-12 17:04:00,75.2,73.4,30.09,WSW,248,3.2,3.5,94,0.00,CLR,,3.17,WeatherDisplay:10.37,2013-05-13 03:04:00,
2013-05-12 17:09:00,75.2,73.4,30.09,WSW,248,3.2,3.5,94,0.00,CLR,,3.17,WeatherDisplay:10.37,2013-05-13 03:09:00,
2013-05-12 17:14:00,75.2,73.4,30.09,WSW,248,3.2,3.5,94,0.00,CLR,,3.17,WeatherDisplay:10.37,2013-05-13 03:14:00,
2013-05-12 17:19:00,75.2,73.4,30.09,WSW,248,3.2,3.5,94,0.00,CLR,,3.17,WeatherDisplay:10.37,2013-05-13 03:19:00,
2013-05-12 17:24:00,75.2,73.4,30.09,WSW,248,3.2,3.5,94,0.00,CLR,,3.17,WeatherDisplay:10.37,2013-05-13 03:24:00,
2013-05-12 17:29:00,75.2,73.4,30.09,WSW,248,3.2,3.5,94,0.00,CLR,,3.17,WeatherDisplay:10.37,2013-05-13 03:29:00,
2013-05-12 17:34:00,75.2,73.4,30.09,WSW,248,3.2,3.5,94,0.00,CLR,,3.17,WeatherDisplay:10.37,2013-05-13 03:34:00,
2013-05-12 17:39:00,75.2,73.4,30.09,WSW,248,3.2,3.5,94,0.00,CLR,,3.17,WeatherDisplay:10.37,2013-05-13 03:39:00,
2013-05-12 17:44:00,75.2,73.4,30.09,WSW,248,3.2,3.5,94,0.00,CLR,,3.17,WeatherDisplay:10.37,2013-05-13 03:44:00,
2013-05-12 17:49:00,75.2,73.4,30.09,WSW,248,3.2,3.5,94,0.00,CLR,,3.17,WeatherDisplay:10.37,2013-05-13 03:49:00,
2013-05-12 17:54:00,75.2,73.4,30.09,WSW,248,3.2,3.5,94,0.00,CLR,,3.17,WeatherDisplay:10.37,2013-05-13 03:54:00,
2013-05-12 17:59:00,75.2,73.4,30.09,WSW,248,3.2,3.5,94,0.00,CLR,,3.17,WeatherDisplay:10.37,2013-05-13 03:59:00,
2013-05-12 18:01:00,75.2,73.4,30.09,WSW,248,3.2,3.5,94,0.00,CLR,,3.17,WeatherDisplay:10.37,2013-05-13 04:01:00,
2013-05-12 18:06:00,75.2,73.4,30.09,WSW,248,3.2,3.5,94,0.00,CLR,,3.17,WeatherDisplay:10.37,2013-05-13 04:06:00,
2013-05-12 18:12:00,75.2,73.4,30.09,WSW,248,3.2,3.5,94,0.00,CLR,,3.17,WeatherDisplay:10.37,2013-05-13 04:12:00,
2013-05-12 18:17:00,75.2,73.4,30.09,WSW,248,3.2,3.5,94,0.00,CLR,,3.17,WeatherDisplay:10.37,2013-05-13 04:17:00,
2013-05-12 18:22:00,75.2,73.4,30.09,WSW,248,3.2,3.5,94,0.00,CLR,,3.17,WeatherDisplay:10.37,2013-05-13 04:22:00,
2013-05-12 18:27:00,74.5,69.3,30.02,NNW,338,3.5,3.5,84,0.00,CLR,,3.17,WeatherDisplay:10.37,2013-05-13 04:27:00,
2013-05-12 18:32:00,74.3,69.1,30.02,SSE,158,5.7,10.4,84,0.00,RA,,3.17,WeatherDisplay:10.37,2013-05-13 04:32:00,
2013-05-12 18:37:00,74.1,69.3,30.03,NNW,338,2.4,3.5,85,0.00,RA,,3.17,WeatherDisplay:10.37,2013-05-13 04:37:00,
2013-05-12 18:42:00,73.6,69.2,30.03,NNW,338,2.3,3.5,86,0.01,RA,,3.18,WeatherDisplay:10.37,2013-05-13 04:42:00,
2013-05-12 18:47:00,73.6,69.5,30.02,WSW,248,3.0,3.5,87,0.01,RA,,3.18,WeatherDisplay:10.37,2013-05-13 04:47:00,
2013-05-12 18:52:00,73.8,70.0,30.02,NNW,338,1.9,2.3,88,0.01,CLR,,3.18,WeatherDisplay:10.37,2013-05-13 04:52:00,
2013-05-12 18:57:00,73.6,69.8,30.02,NNE,22,6.1,6.8,88,0.01,CLR,,3.18,WeatherDisplay:10.37,2013-05-13 04:57:00,
2013-05-12 19:02:00,73.9,70.1,30.03,East,90,5.0,8.1,88,0.01,CLR,,3.18,WeatherDisplay:10.37,2013-05-13 05:02:00,
2013-05-12 19:07:00,73.9,70.1,30.03,SE,135,3.0,5.8,88,0.01,CLR,,3.18,WeatherDisplay:10.37,2013-05-13 05:07:00,
2013-05-12 19:12:00,74.1,70.6,30.04,ENE,68,2.7,6.9,89,0.01,CLR,,3.18,WeatherDisplay:10.37,2013-05-13 05:12:00,
2013-05-12 19:17:00,74.3,70.8,30.04,NNW,338,4.6,5.8,89,0.01,CLR,,3.18,WeatherDisplay:10.37,2013-05-13 05:17:00,
2013-05-12 19:22:00,74.1,70.6,30.04,ENE,68,4.8,4.8,89,0.01,CLR,,3.18,WeatherDisplay:10.37,2013-05-13 05:22:00,
2013-05-12 19:28:00,74.1,70.6,30.04,WNW,292,2.6,3.5,89,0.01,CLR,,3.18,WeatherDisplay:10.37,2013-05-13 05:28:00,
2013-05-12 19:33:00,74.1,71.0,30.04,WNW,292,2.7,3.5,90,0.01,CLR,,3.18,WeatherDisplay:10.37,2013-05-13 05:33:00,
2013-05-12 19:38:00,74.1,71.0,30.04,NW,315,1.9,2.3,90,0.00,CLR,,3.18,WeatherDisplay:10.37,2013-05-13 05:38:00,
2013-05-12 19:43:00,74.1,71.3,30.04,West,270,2.5,3.5,91,0.00,CLR,,3.18,WeatherDisplay:10.37,2013-05-13 05:43:00,
2013-05-12 19:48:00,74.1,71.3,30.04,NNW,338,4.0,4.6,91,0.00,CLR,,3.18,WeatherDisplay:10.37,2013-05-13 05:48:00,
2013-05-12 19:53:00,74.1,71.3,30.04,North,360,2.8,4.6,91,0.00,CLR,,3.18,WeatherDisplay:10.37,2013-05-13 05:53:00,
2013-05-12 19:58:00,74.3,71.5,30.05,SSW,202,5.2,8.8,91,0.00,CLR,,3.18,WeatherDisplay:10.37,2013-05-13 05:58:00,
2013-05-12 20:03:00,73.9,71.1,30.05,East,90,5.2,5.8,91,0.00,CLR,,3.18,WeatherDisplay:10.37,2013-05-13 06:03:00,
2013-05-12 20:08:00,74.1,71.3,30.05,WNW,292,3.5,3.5,91,0.00,CLR,,3.18,WeatherDisplay:10.37,2013-05-13 06:08:00,
2013-05-12 20:13:00,74.3,71.5,30.05,NW,315,2.1,3.5,91,0.00,CLR,,3.18,WeatherDisplay:10.37,2013-05-13 06:13:00,
2013-05-12 20:18:00,74.3,71.5,30.05,NW,315,3.3,3.3,91,0.01,RA,,3.19,WeatherDisplay:10.37,2013-05-13 06:18:00,
2013-05-12 20:23:00,74.3,71.5,30.05,NE,45,5.4,5.8,91,0.01,RA,,3.19,WeatherDisplay:10.37,2013-05-13 06:23:00,
2013-05-12 20:28:00,74.3,71.5,30.05,NNW,338,0.9,2.3,91,0.01,,,3.19,WeatherDisplay:10.37,2013-05-13 06:28:00,
2013-05-12 20:33:00,74.3,71.5,30.05,NNE,22,2.1,2.3,91,0.01,CLR,,3.19,WeatherDisplay:10.37,2013-05-13 06:33:00,
2013-05-12 20:39:00,74.5,71.7,30.05,ENE,68,0.3,2.3,91,0.01,CLR,,3.19,WeatherDisplay:10.37,2013-05-13 06:39:00,
2013-05-12 20:44:00,74.5,72.0,30.05,WNW,292,2.0,3.5,92,0.01,CLR,,3.19,WeatherDisplay:10.37,2013-05-13 06:44:00,
2013-05-12 20:49:00,74.7,72.2,30.05,West,270,1.6,2.3,92,0.01,CLR,,3.19,WeatherDisplay:10.37,2013-05-13 06:49:00,
2013-05-12 20:54:00,74.7,72.2,30.05,WNW,292,3.3,4.6,92,0.01,CLR,,3.19,WeatherDisplay:10.37,2013-05-13 06:54:00,
2013-05-12 20:59:00,74.5,72.0,30.05,NNE,22,2.8,4.2,92,0.01,CLR,,3.19,WeatherDisplay:10.37,2013-05-13 06:59:00,
2013-05-12 21:04:00,74.5,71.7,30.05,ESE,112,1.8,2.3,91,0.01,CLR,,3.19,WeatherDisplay:10.37,2013-05-13 07:04:00,
2013-05-12 21:09:00,74.5,71.7,30.05,East,90,3.0,3.5,91,0.01,CLR,,3.19,WeatherDisplay:10.37,2013-05-13 07:09:00,
2013-05-12 21:14:00,74.7,71.6,30.05,ENE,68,2.1,2.3,90,0.01,CLR,,3.19,WeatherDisplay:10.37,2013-05-13 07:14:00,
2013-05-12 21:19:00,74.7,71.6,30.05,ENE,68,4.6,5.8,90,0.00,CLR,,3.19,WeatherDisplay:10.37,2013-05-13 07:19:00,
2013-05-12 21:24:00,74.7,71.6,30.06,WNW,292,2.0,2.7,90,0.01,RA,,3.20,WeatherDisplay:10.37,2013-05-13 07:24:00,
2013-05-12 21:29:00,74.5,71.4,30.06,SSE,158,2.1,2.7,90,0.01,RA,,3.20,WeatherDisplay:10.37,2013-05-13 07:29:00,
2013-05-12 21:34:00,74.3,71.2,30.06,NNE,22,4.5,6.8,90,0.01,,,3.20,WeatherDisplay:10.37,2013-05-13 07:34:00,
2013-05-12 21:39:00,74.1,70.3,30.06,South,180,1.7,5.8,88,0.01,CLR,,3.20,WeatherDisplay:10.37,2013-05-13 07:39:00,
2013-05-12 21:44:00,73.9,70.1,30.06,ESE,112,8.0,8.8,88,0.01,CLR,,3.20,WeatherDisplay:10.37,2013-05-13 07:44:00,
2013-05-12 21:50:00,74.5,70.7,30.05,WNW,292,0.9,5.8,88,0.02,RA,,3.21,WeatherDisplay:10.37,2013-05-13 07:50:00,
2013-05-12 21:55:00,74.5,70.7,30.05,NE,51,3.0,6.0,88,0.00,RA,,3.21,WeatherDisplay:10.37,2013-05-13 07:55:00,
2013-05-12 22:00:00,74.7,70.9,30.05,WNW,292,2.1,2.3,88,0.02,CLR,,3.21,WeatherDisplay:10.37,2013-05-13 08:00:00,
2013-05-12 22:05:00,74.5,70.7,30.05,NNE,25,3.0,6.0,88,0.00,CLR,,3.21,WeatherDisplay:10.37,2013-05-13 08:05:00,
2013-05-12 22:10:00,74.5,70.7,30.05,ESE,105,2.0,5.0,88,0.00,CLR,,3.21,WeatherDisplay:10.37,2013-05-13 08:10:00,
2013-05-12 22:15:00,74.5,70.7,30.06,NE,54,5.0,6.0,88,0.00,CLR,,3.21,WeatherDisplay:10.37,2013-05-13 08:15:00,
2013-05-12 22:20:00,74.5,70.4,30.06,East,90,8.0,8.0,87,0.00,CLR,,3.21,WeatherDisplay:10.37,2013-05-13 08:20:00,
2013-05-12 22:25:00,74.6,70.4,30.06,East,98,5.0,8.0,87,0.00,CLR,,3.21,WeatherDisplay:10.37,2013-05-13 08:25:00,
2013-05-12 22:30:00,74.7,70.6,30.06,East,90,5.0,9.0,87,0.00,CLR,,3.21,WeatherDisplay:10.37,2013-05-13 08:30:00,
2013-05-12 22:35:00,74.7,70.6,30.06,ENE,66,2.0,6.0,87,0.00,CLR,,3.21,WeatherDisplay:10.37,2013-05-13 08:35:00,
2013-05-12 22:40:00,74.7,70.5,30.06,WNW,290,3.0,5.0,87,0.00,CLR,,3.21,WeatherDisplay:10.37,2013-05-13 08:40:00,
2013-05-12 22:44:00,74.8,70.7,30.06,ENE,68,4.2,5.8,87,0.01,CLR,,3.21,WeatherDisplay:10.37,2013-05-13 08:44:00,
2013-05-12 22:50:00,74.8,70.7,30.06,NE,53,1.0,6.0,87,0.00,CLR,,3.21,WeatherDisplay:10.37,2013-05-13 08:50:00,
2013-05-12 22:55:00,75.0,70.9,30.06,East,92,6.0,9.0,87,0.00,CLR,,3.21,WeatherDisplay:10.37,2013-05-13 08:55:00,
2013-05-12 23:00:00,75.2,71.4,30.06,ENE,76,7.0,9.0,88,0.00,CLR,,3.21,WeatherDisplay:10.37,2013-05-13 09:00:00,
2013-05-12 23:05:00,74.5,70.7,30.06,SSE,158,6.7,9.2,88,0.00,CLR,,3.21,WeatherDisplay:10.37,2013-05-13 09:05:00,
2013-05-12 23:10:00,74.3,70.8,30.06,ESE,110,2.0,6.0,89,0.00,RA,,3.22,WeatherDisplay:10.37,2013-05-13 09:10:00,
2013-05-12 23:15:00,74.3,70.8,30.06,ESE,112,3.3,4.7,89,0.05,RA,,3.27,WeatherDisplay:10.37,2013-05-13 09:15:00,
2013-05-12 23:20:00,74.1,71.0,30.06,ESE,105,7.0,12.0,90,0.00,RA,,3.29,WeatherDisplay:10.37,2013-05-13 09:20:00,
2013-05-12 23:25:00,74.1,71.3,30.07,ESE,112,1.5,4.6,91,0.09,RA,,3.30,WeatherDisplay:10.37,2013-05-13 09:25:00,
2013-05-12 23:30:00,74.1,71.3,30.07,SE,134,5.0,5.0,91,0.00,RA,,3.31,WeatherDisplay:10.37,2013-05-13 09:30:00,
2013-05-12 23:35:00,74.3,71.8,30.06,ESE,106,1.0,5.0,92,0.00,RA,,3.33,WeatherDisplay:10.37,2013-05-13 09:35:00,
2013-05-12 23:40:00,74.2,71.7,30.06,East,82,2.0,3.0,92,0.00,RA,,3.33,WeatherDisplay:10.37,2013-05-13 09:40:00,
2013-05-12 23:45:00,74.3,71.8,30.06,SW,226,1.0,3.0,92,0.00,,,3.33,WeatherDisplay:10.37,2013-05-13 09:45:00,
2013-05-12 23:50:00,74.7,72.2,30.05,SSE,160,5.0,7.0,92,0.00,CLR,,3.33,WeatherDisplay:10.37,2013-05-13 09:50:00,
2013-05-12 23:55:00,74.8,72.3,30.05,SE,142,0.0,4.0,92,0.00,CLR,,3.33,WeatherDisplay:10.37,2013-05-13 09:55:00,